sensor_id;sensor_type;location;lat;lon;timestamp;pressure;altitude;pressure_sealevel;temperature;humidity
40788;BME280;26497;52.494;7.546;2022-11-15T00:00:48;100326.41;;;12.88;59.78
40788;BME280;26497;52.494;7.546;2022-11-15T00:03:16;100323.84;;;12.83;60.57
40788;BME280;26497;52.494;7.546;2022-11-15T00:05:46;100316.22;;;13.20;59.21
40788;BME280;26497;52.494;7.546;2022-11-15T00:08:13;100323.63;;;13.52;58.04
40788;BME280;26497;52.494;7.546;2022-11-15T00:10:40;100326.16;;;13.57;57.61
40788;BME280;26497;52.494;7.546;2022-11-15T00:13:08;100321.03;;;13.49;57.61
40788;BME280;26497;52.494;7.546;2022-11-15T00:15:36;100319.09;;;13.57;57.44
40788;BME280;26497;52.494;7.546;2022-11-15T00:18:04;100307.16;;;13.83;56.66
40788;BME280;26497;52.494;7.546;2022-11-15T00:20:33;100318.44;;;13.92;56.25
40788;BME280;26497;52.494;7.546;2022-11-15T00:23:03;100310.56;;;13.89;56.42
40788;BME280;26497;52.494;7.546;2022-11-15T00:25:30;100313.47;;;13.75;56.77
40788;BME280;26497;52.494;7.546;2022-11-15T00:27:58;100309.00;;;13.78;56.62
40788;BME280;26497;52.494;7.546;2022-11-15T00:30:26;100302.53;;;13.46;57.66
40788;BME280;26497;52.494;7.546;2022-11-15T00:32:53;100305.75;;;13.64;57.52
40788;BME280;26497;52.494;7.546;2022-11-15T00:35:21;100302.88;;;13.75;57.07
40788;BME280;26497;52.494;7.546;2022-11-15T00:37:48;100298.41;;;13.77;56.90
40788;BME280;26497;52.494;7.546;2022-11-15T00:40:17;100299.13;;;13.86;56.75
40788;BME280;26497;52.494;7.546;2022-11-15T00:42:44;100297.78;;;13.64;57.25
40788;BME280;26497;52.494;7.546;2022-11-15T00:45:11;100297.41;;;13.84;57.08
40788;BME280;26497;52.494;7.546;2022-11-15T00:47:38;100301.56;;;13.97;56.49
40788;BME280;26497;52.494;7.546;2022-11-15T00:50:06;100289.50;;;13.82;57.27
40788;BME280;26497;52.494;7.546;2022-11-15T00:52:33;100276.56;;;14.09;56.35
40788;BME280;26497;52.494;7.546;2022-11-15T00:55:00;100281.41;;;13.89;56.90
40788;BME280;26497;52.494;7.546;2022-11-15T00:57:28;100276.31;;;13.79;57.25
40788;BME280;26497;52.494;7.546;2022-11-15T00:59:56;100272.69;;;13.82;57.23
40788;BME280;26497;52.494;7.546;2022-11-15T01:02:23;100262.34;;;13.69;57.86
40788;BME280;26497;52.494;7.546;2022-11-15T01:04:50;100271.97;;;13.74;57.74
40788;BME280;26497;52.494;7.546;2022-11-15T01:07:17;100257.88;;;13.73;57.96
40788;BME280;26497;52.494;7.546;2022-11-15T01:09:44;100269.44;;;13.67;58.38
40788;BME280;26497;52.494;7.546;2022-11-15T01:12:11;100257.41;;;13.95;57.92
40788;BME280;26497;52.494;7.546;2022-11-15T01:14:39;100253.78;;;13.99;57.94
40788;BME280;26497;52.494;7.546;2022-11-15T01:17:06;100256.13;;;13.72;59.38
40788;BME280;26497;52.494;7.546;2022-11-15T01:19:34;100243.53;;;13.83;59.32
40788;BME280;26497;52.494;7.546;2022-11-15T01:22:01;100255.34;;;13.65;60.22
40788;BME280;26497;52.494;7.546;2022-11-15T01:24:28;100255.81;;;13.42;61.32
40788;BME280;26497;52.494;7.546;2022-11-15T01:26:55;100255.72;;;13.47;61.81
40788;BME280;26497;52.494;7.546;2022-11-15T01:29:22;100241.75;;;13.37;62.63
40788;BME280;26497;52.494;7.546;2022-11-15T01:31:53;100238.72;;;13.59;62.09
40788;BME280;26497;52.494;7.546;2022-11-15T01:34:20;100239.03;;;13.43;62.32
40788;BME280;26497;52.494;7.546;2022-11-15T01:36:47;100233.81;;;13.37;62.97
40788;BME280;26497;52.494;7.546;2022-11-15T01:39:14;100238.31;;;13.30;63.54
40788;BME280;26497;52.494;7.546;2022-11-15T01:41:42;100234.56;;;13.44;63.38
40788;BME280;26497;52.494;7.546;2022-11-15T01:44:40;100216.09;;;13.39;63.60
40788;BME280;26497;52.494;7.546;2022-11-15T01:47:13;100213.38;;;13.44;63.43
40788;BME280;26497;52.494;7.546;2022-11-15T01:49:50;100208.50;;;13.69;62.58
40788;BME280;26497;52.494;7.546;2022-11-15T01:52:23;100206.91;;;14.01;61.33
40788;BME280;26497;52.494;7.546;2022-11-15T01:55:00;100207.19;;;13.89;61.42
40788;BME280;26497;52.494;7.546;2022-11-15T01:57:29;100197.78;;;13.74;61.89
40788;BME280;26497;52.494;7.546;2022-11-15T01:59:56;100203.53;;;13.93;61.34
40788;BME280;26497;52.494;7.546;2022-11-15T02:02:25;100200.28;;;13.81;61.67
40788;BME280;26497;52.494;7.546;2022-11-15T02:04:53;100199.94;;;13.97;61.12
40788;BME280;26497;52.494;7.546;2022-11-15T02:07:22;100184.59;;;14.11;60.82
40788;BME280;26497;52.494;7.546;2022-11-15T02:09:50;100183.34;;;14.28;60.31
40788;BME280;26497;52.494;7.546;2022-11-15T02:12:20;100189.03;;;14.11;60.75
40788;BME280;26497;52.494;7.546;2022-11-15T02:14:51;100188.06;;;14.15;61.17
40788;BME280;26497;52.494;7.546;2022-11-15T02:17:44;100188.28;;;14.04;61.36
40788;BME280;26497;52.494;7.546;2022-11-15T02:20:41;100184.59;;;14.11;61.62
40788;BME280;26497;52.494;7.546;2022-11-15T02:24:02;100171.53;;;14.41;60.78
40788;BME280;26497;52.494;7.546;2022-11-15T02:30:20;100178.22;;;14.20;60.77
40788;BME280;26497;52.494;7.546;2022-11-15T02:32:53;100176.81;;;14.43;60.00
40788;BME280;26497;52.494;7.546;2022-11-15T02:35:31;100183.25;;;14.31;60.35
40788;BME280;26497;52.494;7.546;2022-11-15T02:38:08;100185.97;;;14.29;60.17
40788;BME280;26497;52.494;7.546;2022-11-15T02:40:45;100178.78;;;14.33;60.14
40788;BME280;26497;52.494;7.546;2022-11-15T02:43:24;100182.97;;;14.43;59.73
40788;BME280;26497;52.494;7.546;2022-11-15T02:46:17;100182.25;;;14.37;60.09
40788;BME280;26497;52.494;7.546;2022-11-15T02:48:48;100187.50;;;14.40;60.04
40788;BME280;26497;52.494;7.546;2022-11-15T02:51:16;100180.91;;;14.56;59.67
40788;BME280;26497;52.494;7.546;2022-11-15T02:53:43;100180.44;;;14.77;59.10
40788;BME280;26497;52.494;7.546;2022-11-15T02:56:11;100172.16;;;14.87;58.74
40788;BME280;26497;52.494;7.546;2022-11-15T02:59:04;100177.84;;;14.73;59.16
40788;BME280;26497;52.494;7.546;2022-11-15T03:01:55;100182.94;;;14.83;59.30
40788;BME280;26497;52.494;7.546;2022-11-15T03:04:35;100168.59;;;14.88;59.11
40788;BME280;26497;52.494;7.546;2022-11-15T03:07:12;100167.03;;;14.81;59.43
40788;BME280;26497;52.494;7.546;2022-11-15T03:09:49;100180.66;;;14.66;60.38
40788;BME280;26497;52.494;7.546;2022-11-15T03:12:27;100181.09;;;14.85;59.77
40788;BME280;26497;52.494;7.546;2022-11-15T03:15:00;100176.56;;;14.88;59.81
40788;BME280;26497;52.494;7.546;2022-11-15T03:17:37;100169.28;;;14.97;59.94
40788;BME280;26497;52.494;7.546;2022-11-15T03:20:07;100162.38;;;14.91;60.21
40788;BME280;26497;52.494;7.546;2022-11-15T03:22:39;100167.59;;;14.94;60.52
40788;BME280;26497;52.494;7.546;2022-11-15T03:25:12;100172.28;;;15.17;60.27
40788;BME280;26497;52.494;7.546;2022-11-15T03:27:46;100173.72;;;14.96;60.61
40788;BME280;26497;52.494;7.546;2022-11-15T03:30:15;100161.69;;;14.83;61.74
40788;BME280;26497;52.494;7.546;2022-11-15T03:32:49;100159.47;;;15.00;61.76
40788;BME280;26497;52.494;7.546;2022-11-15T03:35:20;100167.09;;;15.13;61.85
40788;BME280;26497;52.494;7.546;2022-11-15T03:37:52;100163.13;;;15.28;61.31
40788;BME280;26497;52.494;7.546;2022-11-15T03:40:25;100168.75;;;15.17;61.90
40788;BME280;26497;52.494;7.546;2022-11-15T03:43:02;100167.53;;;15.29;61.34
40788;BME280;26497;52.494;7.546;2022-11-15T03:45:36;100171.72;;;15.38;61.24
40788;BME280;26497;52.494;7.546;2022-11-15T03:48:16;100165.66;;;15.32;61.31
40788;BME280;26497;52.494;7.546;2022-11-15T03:50:46;100166.13;;;15.15;61.88
40788;BME280;26497;52.494;7.546;2022-11-15T03:53:14;100178.28;;;15.24;62.12
40788;BME280;26497;52.494;7.546;2022-11-15T03:55:41;100181.41;;;15.39;61.54
40788;BME280;26497;52.494;7.546;2022-11-15T03:58:08;100177.59;;;15.49;61.00
40788;BME280;26497;52.494;7.546;2022-11-15T04:00:35;100172.19;;;15.52;61.17
40788;BME280;26497;52.494;7.546;2022-11-15T04:03:03;100168.13;;;15.39;61.78
40788;BME280;26497;52.494;7.546;2022-11-15T04:05:31;100168.63;;;15.53;61.64
40788;BME280;26497;52.494;7.546;2022-11-15T04:07:58;100187.13;;;15.25;63.07
40788;BME280;26497;52.494;7.546;2022-11-15T04:10:25;100178.47;;;15.18;63.86
40788;BME280;26497;52.494;7.546;2022-11-15T04:12:53;100165.19;;;15.50;62.48
40788;BME280;26497;52.494;7.546;2022-11-15T04:15:22;100166.66;;;15.60;62.11
40788;BME280;26497;52.494;7.546;2022-11-15T04:17:52;100171.59;;;15.42;63.32
40788;BME280;26497;52.494;7.546;2022-11-15T04:20:21;100171.91;;;15.61;62.88
40788;BME280;26497;52.494;7.546;2022-11-15T04:23:10;100170.34;;;15.86;61.78
40788;BME280;26497;52.494;7.546;2022-11-15T04:25:59;100157.59;;;15.97;61.35
40788;BME280;26497;52.494;7.546;2022-11-15T04:28:26;100154.88;;;15.69;62.62
40788;BME280;26497;52.494;7.546;2022-11-15T04:30:54;100165.22;;;15.48;63.46
40788;BME280;26497;52.494;7.546;2022-11-15T04:33:21;100158.81;;;15.55;63.75
40788;BME280;26497;52.494;7.546;2022-11-15T04:35:49;100163.66;;;15.41;64.54
40788;BME280;26497;52.494;7.546;2022-11-15T04:38:31;100156.63;;;15.70;63.53
40788;BME280;26497;52.494;7.546;2022-11-15T04:40:58;100162.47;;;15.51;64.25
40788;BME280;26497;52.494;7.546;2022-11-15T04:43:26;100157.63;;;15.66;63.80
40788;BME280;26497;52.494;7.546;2022-11-15T04:45:53;100160.44;;;15.61;63.64
40788;BME280;26497;52.494;7.546;2022-11-15T04:48:20;100155.44;;;15.80;63.13
40788;BME280;26497;52.494;7.546;2022-11-15T04:50:48;100153.59;;;15.82;63.18
40788;BME280;26497;52.494;7.546;2022-11-15T04:53:15;100152.78;;;15.80;63.57
40788;BME280;26497;52.494;7.546;2022-11-15T04:55:46;100163.25;;;16.15;62.10
40788;BME280;26497;52.494;7.546;2022-11-15T04:58:13;100157.38;;;16.05;62.39
40788;BME280;26497;52.494;7.546;2022-11-15T05:00:40;100158.66;;;15.91;62.95
40788;BME280;26497;52.494;7.546;2022-11-15T05:03:09;100161.88;;;16.03;62.90
40788;BME280;26497;52.494;7.546;2022-11-15T05:05:53;100168.28;;;15.96;63.15
40788;BME280;26497;52.494;7.546;2022-11-15T05:08:21;100162.34;;;15.87;63.65
40788;BME280;26497;52.494;7.546;2022-11-15T05:10:50;100167.66;;;16.16;62.57
40788;BME280;26497;52.494;7.546;2022-11-15T05:13:17;100160.31;;;15.96;63.46
40788;BME280;26497;52.494;7.546;2022-11-15T05:15:44;100169.81;;;16.33;61.96
40788;BME280;26497;52.494;7.546;2022-11-15T05:18:11;100170.72;;;16.32;62.00
40788;BME280;26497;52.494;7.546;2022-11-15T05:20:39;100172.53;;;16.58;61.01
40788;BME280;26497;52.494;7.546;2022-11-15T05:23:06;100167.84;;;16.65;60.60
40788;BME280;26497;52.494;7.546;2022-11-15T05:25:35;100163.41;;;16.65;60.59
40788;BME280;26497;52.494;7.546;2022-11-15T05:28:04;100160.69;;;16.67;60.37
40788;BME280;26497;52.494;7.546;2022-11-15T05:30:31;100163.72;;;16.56;61.03
40788;BME280;26497;52.494;7.546;2022-11-15T05:32:58;100165.19;;;16.38;61.88
40788;BME280;26497;52.494;7.546;2022-11-15T05:35:30;100156.44;;;16.34;62.51
40788;BME280;26497;52.494;7.546;2022-11-15T05:38:00;100152.94;;;16.32;62.70
40788;BME280;26497;52.494;7.546;2022-11-15T05:40:27;100161.78;;;16.06;63.50
40788;BME280;26497;52.494;7.546;2022-11-15T05:42:56;100152.91;;;16.34;63.19
40788;BME280;26497;52.494;7.546;2022-11-15T05:45:25;100152.22;;;16.56;62.06
40788;BME280;26497;52.494;7.546;2022-11-15T05:47:52;100155.63;;;16.59;61.96
40788;BME280;26497;52.494;7.546;2022-11-15T05:50:20;100153.47;;;16.71;61.32
40788;BME280;26497;52.494;7.546;2022-11-15T05:52:48;100156.59;;;16.30;62.68
40788;BME280;26497;52.494;7.546;2022-11-15T05:55:15;100162.69;;;16.33;62.87
40788;BME280;26497;52.494;7.546;2022-11-15T05:57:43;100152.03;;;16.60;61.73
40788;BME280;26497;52.494;7.546;2022-11-15T06:00:12;100152.47;;;16.73;61.49
40788;BME280;26497;52.494;7.546;2022-11-15T06:02:40;100157.25;;;16.63;61.69
40788;BME280;26497;52.494;7.546;2022-11-15T06:05:08;100153.81;;;16.60;62.17
40788;BME280;26497;52.494;7.546;2022-11-15T06:07:35;100147.84;;;16.80;61.64
40788;BME280;26497;52.494;7.546;2022-11-15T06:10:02;100151.75;;;16.97;61.02
40788;BME280;26497;52.494;7.546;2022-11-15T06:12:29;100153.09;;;16.81;61.34
40788;BME280;26497;52.494;7.546;2022-11-15T06:14:57;100157.06;;;16.70;62.31
40788;BME280;26497;52.494;7.546;2022-11-15T06:17:24;100163.44;;;16.91;61.66
40788;BME280;26497;52.494;7.546;2022-11-15T06:19:52;100164.41;;;17.15;60.61
40788;BME280;26497;52.494;7.546;2022-11-15T06:22:19;100158.31;;;16.85;61.67
40788;BME280;26497;52.494;7.546;2022-11-15T06:24:46;100162.63;;;16.89;61.65
40788;BME280;26497;52.494;7.546;2022-11-15T06:27:14;100163.97;;;17.02;61.39
40788;BME280;26497;52.494;7.546;2022-11-15T06:29:41;100172.75;;;17.04;61.17
40788;BME280;26497;52.494;7.546;2022-11-15T06:32:09;100170.16;;;17.03;61.11
40788;BME280;26497;52.494;7.546;2022-11-15T06:34:36;100173.97;;;17.21;60.86
40788;BME280;26497;52.494;7.546;2022-11-15T06:37:04;100174.06;;;17.18;60.66
40788;BME280;26497;52.494;7.546;2022-11-15T06:39:31;100174.25;;;17.13;61.20
40788;BME280;26497;52.494;7.546;2022-11-15T06:41:58;100169.75;;;17.15;60.89
40788;BME280;26497;52.494;7.546;2022-11-15T06:44:26;100172.59;;;17.34;60.36
40788;BME280;26497;52.494;7.546;2022-11-15T06:46:53;100174.06;;;17.18;60.86
40788;BME280;26497;52.494;7.546;2022-11-15T06:49:20;100168.31;;;17.05;61.09
40788;BME280;26497;52.494;7.546;2022-11-15T06:51:47;100178.88;;;17.08;61.58
40788;BME280;26497;52.494;7.546;2022-11-15T06:54:15;100167.72;;;17.22;60.94
40788;BME280;26497;52.494;7.546;2022-11-15T06:56:42;100178.19;;;17.27;60.71
40788;BME280;26497;52.494;7.546;2022-11-15T06:59:09;100169.34;;;17.26;60.77
40788;BME280;26497;52.494;7.546;2022-11-15T07:01:36;100175.03;;;17.41;60.52
40788;BME280;26497;52.494;7.546;2022-11-15T07:04:04;100166.94;;;17.67;59.69
40788;BME280;26497;52.494;7.546;2022-11-15T07:06:31;100174.88;;;17.69;59.07
40788;BME280;26497;52.494;7.546;2022-11-15T07:08:58;100174.59;;;17.53;59.74
40788;BME280;26497;52.494;7.546;2022-11-15T07:11:27;100188.25;;;17.44;60.13
40788;BME280;26497;52.494;7.546;2022-11-15T07:13:54;100188.28;;;17.42;60.28
40788;BME280;26497;52.494;7.546;2022-11-15T07:16:21;100193.91;;;17.34;60.52
40788;BME280;26497;52.494;7.546;2022-11-15T07:18:48;100198.66;;;17.26;60.63
40788;BME280;26497;52.494;7.546;2022-11-15T07:21:15;100195.28;;;17.21;61.36
40788;BME280;26497;52.494;7.546;2022-11-15T07:27:24;100196.28;;;17.18;61.52
40788;BME280;26497;52.494;7.546;2022-11-15T07:29:52;100203.00;;;17.03;62.29
40788;BME280;26497;52.494;7.546;2022-11-15T07:32:19;100201.84;;;17.10;62.38
40788;BME280;26497;52.494;7.546;2022-11-15T07:34:46;100200.31;;;17.03;63.47
40788;BME280;26497;52.494;7.546;2022-11-15T07:37:13;100196.78;;;16.76;65.21
40788;BME280;26497;52.494;7.546;2022-11-15T07:39:40;100201.69;;;16.61;66.23
40788;BME280;26497;52.494;7.546;2022-11-15T07:42:07;100205.59;;;16.78;65.75
40788;BME280;26497;52.494;7.546;2022-11-15T07:44:54;100206.22;;;16.86;65.65
40788;BME280;26497;52.494;7.546;2022-11-15T07:47:21;100211.53;;;16.86;65.83
40788;BME280;26497;52.494;7.546;2022-11-15T07:49:48;100210.81;;;16.81;66.24
40788;BME280;26497;52.494;7.546;2022-11-15T07:52:15;100206.66;;;16.72;66.67
40788;BME280;26497;52.494;7.546;2022-11-15T07:54:42;100201.44;;;16.69;67.16
40788;BME280;26497;52.494;7.546;2022-11-15T07:57:09;100205.72;;;16.73;67.28
40788;BME280;26497;52.494;7.546;2022-11-15T07:59:36;100206.66;;;16.72;67.51
40788;BME280;26497;52.494;7.546;2022-11-15T08:02:05;100207.69;;;16.68;67.72
40788;BME280;26497;52.494;7.546;2022-11-15T08:04:33;100209.03;;;16.55;68.72
40788;BME280;26497;52.494;7.546;2022-11-15T08:07:00;100205.38;;;16.57;69.08
40788;BME280;26497;52.494;7.546;2022-11-15T08:09:28;100204.28;;;16.63;69.25
40788;BME280;26497;52.494;7.546;2022-11-15T08:11:55;100203.59;;;16.85;68.37
40788;BME280;26497;52.494;7.546;2022-11-15T08:14:22;100201.44;;;16.96;67.70
40788;BME280;26497;52.494;7.546;2022-11-15T08:16:49;100202.53;;;16.63;69.07
40788;BME280;26497;52.494;7.546;2022-11-15T08:19:17;100195.19;;;16.43;69.87
40788;BME280;26497;52.494;7.546;2022-11-15T08:21:44;100193.00;;;16.56;69.66
40788;BME280;26497;52.494;7.546;2022-11-15T08:24:11;100193.50;;;16.68;69.31
40788;BME280;26497;52.494;7.546;2022-11-15T08:26:38;100185.22;;;16.77;69.24
40788;BME280;26497;52.494;7.546;2022-11-15T08:29:06;100188.03;;;16.72;69.03
40788;BME280;26497;52.494;7.546;2022-11-15T08:31:35;100190.69;;;16.72;69.36
40788;BME280;26497;52.494;7.546;2022-11-15T08:34:08;100184.28;;;16.51;70.18
40788;BME280;26497;52.494;7.546;2022-11-15T08:36:40;100194.56;;;16.62;70.20
40788;BME280;26497;52.494;7.546;2022-11-15T08:39:09;100187.16;;;16.72;69.48
40788;BME280;26497;52.494;7.546;2022-11-15T08:41:37;100190.34;;;16.83;68.88
40788;BME280;26497;52.494;7.546;2022-11-15T08:44:05;100188.19;;;16.94;68.47
40788;BME280;26497;52.494;7.546;2022-11-15T08:46:32;100194.97;;;16.76;68.59
40788;BME280;26497;52.494;7.546;2022-11-15T08:48:59;100189.16;;;16.65;69.23
40788;BME280;26497;52.494;7.546;2022-11-15T08:51:26;100194.53;;;16.90;68.75
40788;BME280;26497;52.494;7.546;2022-11-15T08:54:02;100189.41;;;16.84;68.87
40788;BME280;26497;52.494;7.546;2022-11-15T08:56:32;100179.25;;;16.95;68.63
40788;BME280;26497;52.494;7.546;2022-11-15T08:58:59;100177.25;;;16.75;69.54
40788;BME280;26497;52.494;7.546;2022-11-15T09:01:26;100179.63;;;16.85;69.37
40788;BME280;26497;52.494;7.546;2022-11-15T09:03:53;100181.16;;;16.92;69.15
40788;BME280;26497;52.494;7.546;2022-11-15T09:06:20;100178.78;;;16.83;69.78
40788;BME280;26497;52.494;7.546;2022-11-15T09:08:48;100182.78;;;16.98;69.21
40788;BME280;26497;52.494;7.546;2022-11-15T09:11:16;100174.78;;;16.96;69.53
40788;BME280;26497;52.494;7.546;2022-11-15T09:13:49;100171.72;;;17.08;69.23
40788;BME280;26497;52.494;7.546;2022-11-15T09:16:16;100168.03;;;17.13;69.23
40788;BME280;26497;52.494;7.546;2022-11-15T09:18:43;100172.97;;;16.98;69.52
40788;BME280;26497;52.494;7.546;2022-11-15T09:21:10;100174.78;;;16.98;69.48
40788;BME280;26497;52.494;7.546;2022-11-15T09:23:37;100173.78;;;17.00;69.71
40788;BME280;26497;52.494;7.546;2022-11-15T09:26:07;100171.31;;;16.94;69.67
40788;BME280;26497;52.494;7.546;2022-11-15T09:28:38;100170.47;;;16.93;69.87
40788;BME280;26497;52.494;7.546;2022-11-15T09:31:08;100163.00;;;17.05;69.74
40788;BME280;26497;52.494;7.546;2022-11-15T09:33:35;100159.53;;;17.27;68.76
40788;BME280;26497;52.494;7.546;2022-11-15T09:36:05;100153.88;;;17.36;68.42
40788;BME280;26497;52.494;7.546;2022-11-15T09:38:33;100156.63;;;17.58;67.69
40788;BME280;26497;52.494;7.546;2022-11-15T09:41:55;100155.50;;;17.64;67.20
40788;BME280;26497;52.494;7.546;2022-11-15T09:44:59;100153.88;;;18.07;65.99
40788;BME280;26497;52.494;7.546;2022-11-15T09:47:47;100153.81;;;18.09;64.98
40788;BME280;26497;52.494;7.546;2022-11-15T09:50:36;100161.44;;;18.18;64.37
40788;BME280;26497;52.494;7.546;2022-11-15T09:53:12;100159.66;;;18.41;63.66
40788;BME280;26497;52.494;7.546;2022-11-15T09:55:53;100156.94;;;18.42;63.20
40788;BME280;26497;52.494;7.546;2022-11-15T09:58:33;100156.47;;;18.53;62.92
40788;BME280;26497;52.494;7.546;2022-11-15T10:01:10;100162.69;;;18.75;61.22
40788;BME280;26497;52.494;7.546;2022-11-15T10:03:40;100156.97;;;18.84;61.44
40788;BME280;26497;52.494;7.546;2022-11-15T10:06:16;100155.97;;;18.86;60.79
40788;BME280;26497;52.494;7.546;2022-11-15T10:08:53;100158.34;;;19.15;60.40
40788;BME280;26497;52.494;7.546;2022-11-15T10:11:27;100147.72;;;19.53;59.42
40788;BME280;26497;52.494;7.546;2022-11-15T10:14:02;100138.56;;;19.97;57.31
40788;BME280;26497;52.494;7.546;2022-11-15T10:20:06;100136.16;;;19.53;57.60
40788;BME280;26497;52.494;7.546;2022-11-15T10:22:41;100130.03;;;19.30;58.37
40788;BME280;26497;52.494;7.546;2022-11-15T10:25:19;100126.66;;;19.26;57.85
40788;BME280;26497;52.494;7.546;2022-11-15T10:27:59;100121.13;;;19.10;58.50
40788;BME280;26497;52.494;7.546;2022-11-15T10:30:36;100112.72;;;19.20;58.32
40788;BME280;26497;52.494;7.546;2022-11-15T10:33:32;100111.03;;;18.96;58.21
40788;BME280;26497;52.494;7.546;2022-11-15T10:36:23;100114.75;;;18.71;59.63
40788;BME280;26497;52.494;7.546;2022-11-15T10:38:58;100108.06;;;19.04;58.56
40788;BME280;26497;52.494;7.546;2022-11-15T10:41:37;100105.97;;;19.11;58.21
40788;BME280;26497;52.494;7.546;2022-11-15T10:44:21;100105.47;;;19.22;57.28
40788;BME280;26497;52.494;7.546;2022-11-15T10:50:05;100117.81;;;19.05;57.26
40788;BME280;26497;52.494;7.546;2022-11-15T10:52:35;100106.84;;;19.11;56.86
40788;BME280;26497;52.494;7.546;2022-11-15T10:55:23;100107.72;;;19.31;56.54
40788;BME280;26497;52.494;7.546;2022-11-15T10:57:53;100103.09;;;19.15;57.01
40788;BME280;26497;52.494;7.546;2022-11-15T11:00:34;100089.47;;;19.60;56.09
40788;BME280;26497;52.494;7.546;2022-11-15T11:03:04;100096.94;;;20.09;54.14
40788;BME280;26497;52.494;7.546;2022-11-15T11:05:36;100083.72;;;20.43;52.56
40788;BME280;26497;52.494;7.546;2022-11-15T11:08:15;100087.13;;;20.10;51.84
40788;BME280;26497;52.494;7.546;2022-11-15T11:10:52;100091.47;;;19.55;53.34
40788;BME280;26497;52.494;7.546;2022-11-15T11:13:23;100088.00;;;19.34;53.41
40788;BME280;26497;52.494;7.546;2022-11-15T11:15:58;100094.06;;;19.37;53.36
40788;BME280;26497;52.494;7.546;2022-11-15T11:18:32;100085.06;;;19.00;52.56
40788;BME280;26497;52.494;7.546;2022-11-15T11:21:08;100098.59;;;19.16;52.30
40788;BME280;26497;52.494;7.546;2022-11-15T11:23:45;100088.09;;;19.70;48.89
40788;BME280;26497;52.494;7.546;2022-11-15T11:26:35;100088.28;;;19.85;47.69
40788;BME280;26497;52.494;7.546;2022-11-15T11:29:14;100091.19;;;19.99;46.76
40788;BME280;26497;52.494;7.546;2022-11-15T11:31:47;100081.31;;;20.54;45.57
40788;BME280;26497;52.494;7.546;2022-11-15T11:34:34;100076.50;;;20.26;45.70
40788;BME280;26497;52.494;7.546;2022-11-15T11:37:17;100067.16;;;20.35;45.63
40788;BME280;26497;52.494;7.546;2022-11-15T11:39:59;100070.34;;;20.06;46.13
40788;BME280;26497;52.494;7.546;2022-11-15T11:42:39;100063.22;;;20.24;45.31
40788;BME280;26497;52.494;7.546;2022-11-15T11:45:18;100064.50;;;20.52;45.00
40788;BME280;26497;52.494;7.546;2022-11-15T11:47:55;100062.19;;;20.62;44.52
40788;BME280;26497;52.494;7.546;2022-11-15T11:50:27;100073.28;;;20.72;44.53
40788;BME280;26497;52.494;7.546;2022-11-15T11:52:58;100054.47;;;20.56;44.32
40788;BME280;26497;52.494;7.546;2022-11-15T11:55:29;100057.94;;;20.40;44.52
40788;BME280;26497;52.494;7.546;2022-11-15T11:58:06;100046.50;;;20.01;45.46
40788;BME280;26497;52.494;7.546;2022-11-15T12:00:40;100048.88;;;20.25;45.30
40788;BME280;26497;52.494;7.546;2022-11-15T12:03:12;100057.50;;;19.95;45.18
40788;BME280;26497;52.494;7.546;2022-11-15T12:05:44;100049.16;;;20.01;45.72
40788;BME280;26497;52.494;7.546;2022-11-15T12:08:31;100050.13;;;20.71;44.71
40788;BME280;26497;52.494;7.546;2022-11-15T12:11:09;100038.34;;;21.25;43.09
40788;BME280;26497;52.494;7.546;2022-11-15T12:13:44;100036.16;;;21.65;42.62
40788;BME280;26497;52.494;7.546;2022-11-15T12:16:16;100040.78;;;21.29;42.31
40788;BME280;26497;52.494;7.546;2022-11-15T12:18:49;100037.63;;;21.05;43.09
40788;BME280;26497;52.494;7.546;2022-11-15T12:21:23;100042.41;;;20.82;43.23
40788;BME280;26497;52.494;7.546;2022-11-15T12:23:57;100041.88;;;20.40;44.82
40788;BME280;26497;52.494;7.546;2022-11-15T12:26:31;100037.31;;;20.42;44.76
40788;BME280;26497;52.494;7.546;2022-11-15T12:29:03;100044.16;;;20.13;45.46
40788;BME280;26497;52.494;7.546;2022-11-15T12:31:38;100035.66;;;20.22;45.62
40788;BME280;26497;52.494;7.546;2022-11-15T12:34:29;100027.31;;;20.11;45.04
40788;BME280;26497;52.494;7.546;2022-11-15T12:36:56;100026.84;;;19.64;46.03
40788;BME280;26497;52.494;7.546;2022-11-15T12:40:17;100028.75;;;19.43;46.68
40788;BME280;26497;52.494;7.546;2022-11-15T12:46:21;100016.44;;;19.58;46.97
40788;BME280;26497;52.494;7.546;2022-11-15T12:48:56;100019.66;;;19.47;46.85
40788;BME280;26497;52.494;7.546;2022-11-15T12:52:06;100015.09;;;19.30;47.15
40788;BME280;26497;52.494;7.546;2022-11-15T12:54:57;100007.97;;;19.11;47.36
40788;BME280;26497;52.494;7.546;2022-11-15T12:57:33;100000.78;;;19.50;46.74
40788;BME280;26497;52.494;7.546;2022-11-15T13:00:01;99994.06;;;20.50;45.16
40788;BME280;26497;52.494;7.546;2022-11-15T13:02:31;100001.09;;;20.86;43.59
40788;BME280;26497;52.494;7.546;2022-11-15T13:05:51;99991.59;;;21.62;41.02
40788;BME280;26497;52.494;7.546;2022-11-15T13:08:41;99993.03;;;22.15;39.71
40788;BME280;26497;52.494;7.546;2022-11-15T13:11:46;99987.88;;;23.15;39.05
40788;BME280;26497;52.494;7.546;2022-11-15T13:14:44;99989.34;;;23.62;37.22
40788;BME280;26497;52.494;7.546;2022-11-15T13:17:35;99993.59;;;24.07;36.72
40788;BME280;26497;52.494;7.546;2022-11-15T13:20:21;99986.19;;;23.41;35.13
40788;BME280;26497;52.494;7.546;2022-11-15T13:22:51;99995.06;;;22.56;35.46
40788;BME280;26497;52.494;7.546;2022-11-15T13:25:47;99993.25;;;21.95;36.44
40788;BME280;26497;52.494;7.546;2022-11-15T13:28:26;99994.09;;;21.82;36.49
40788;BME280;26497;52.494;7.546;2022-11-15T13:30:58;99996.41;;;21.08;36.88
40788;BME280;26497;52.494;7.546;2022-11-15T13:33:31;99998.97;;;20.75;37.08
40788;BME280;26497;52.494;7.546;2022-11-15T13:36:02;99991.50;;;20.65;38.11